Aérodrome :
LOGIN :

S'inscrire | Disclaimer

   EN    FR    IT 

 










Légende :    VFR   VFR Marginal   IFR   IFR Intensif   IFR Très Intensif
Visi : 
Plafond : 
>= 8 km
>= 3000ft
5 à 8 km
1000 à 3000 ft
1500m à 5 km
500 à 1000 ft
800 à 1500m
200 à 500 ft
< 800m
< 200 ft
Symboles :   Orages  Brouillard  Fortes neiges  Fortes précipitations  Vent > 20 kt
SIGMETs :   Divers  Orages  Givrage  Turbulence  Onde Orograph.  Cendres Volcan.







- Altitude de l'aérodrome : 231 ft
- Code IATA : WTN


EGXW - RAF Waddington

DERNIER METAR :
  • 211650Z 12008KT 9000 HZ FEW250 03/01 Q1017 BLU NOSIG

METARs EXPIRÉS :
  • 211550Z 11010KT CAVOK 04/02 Q1016 BLU NOSIG
  • 211450Z 13012KT 9999 FEW018 05/03 Q1015 BLU NOSIG

TAF TAF EGXW
Valide du 21 à 18h jusqu'au 22 à 12h UTC


211630Z 2118/2212 11007KT 8000 HZ FEW020
BECMG 2118/2121 3800 BR
PROB30 2121/2203 1500
BECMG 2203/2206 -RA BKN006
PROB30 2206/2209 0500 FG OVC000
BECMG 2209/2212 7000 HZ SCT012 BKN022
Pas de NOTAMs connus pour ce terrain.



MET'MAP, la Météo Aéronautique d'un coup d'oeil ! - Copyright ORBIFLY Décembre 2007 - Disclaimer

ORBIFLY MET'MAP TEAM :

Programmation & Développement : Alexandra Zaïnal
Conception & Développement : Baudouin d'Aumeries
Co-Programmation & Développement : Marc-Olivier Méhu
Soutien technique & logistique : Manuel Goepfert

Contact : metmap@orbifly.com




SOURCES & CREDITS :

   NOAA